Monday, January 21, 2019, 5:36 PM EST
Back to Local

KCDW, Caldwell Essex County Airport

Location: Fairfield, NJ, United States Lat: 40.883
Local Time: 5:36 PM EST (22:36 GMT) Lon: -74.283
Time Zone: US/Eastern Elev: 173 ft

Show me the last for .
Show Decoded

2019-01-21 16:53 METAR KCDW 212153Z 29013G23KT 10SM CLR M12/M22 A3020 RMK AO2 PK WND 31034/2123
                 SLP235 T11171217 =
2019-01-21 15:53 METAR KCDW 212053Z 30018G30KT 10SM CLR M11/M21 A3016 RMK AO2 PK WND 31032/2007
                 SLP223 T11111211 53022 =
2019-01-21 14:53 METAR KCDW 211953Z 30019G26KT 10SM FEW042 M11/M21 A3012 RMK AO2 PK WND
                 33034/1914 SLP209 T11111206 =
2019-01-21 13:53 METAR KCDW 211853Z 31015G31KT 10SM FEW042 M12/M21 A3010 RMK AO2 PK WND
                 30036/1827 SLP201 T11171211 =
2019-01-21 12:53 METAR KCDW 211753Z 31018G31KT 10SM BKN041 M12/M22 A3010 RMK AO2 PK WND
                 30035/1713 SLP201 T11221217 11122 21167 51010 =
2019-01-21 11:53 METAR KCDW 211653Z 31016G27KT 10SM SCT045 M13/M22 A3009 RMK AO2 PK WND
                 29033/1555 SLP198 T11331217 =
2019-01-21 10:53 METAR KCDW 211553Z 30017G24KT 10SM FEW040 M15/M23 A3008 RMK AO2 PK WND
                 30032/1513 SLP195 T11501228 =
2019-01-21 09:53 METAR KCDW 211453Z 31015G29KT 10SM OVC037 M16/M24 A3007 RMK AO2 PK WND
                 31029/1450 SLP191 T11561239 51031 =
2019-01-21 08:53 METAR KCDW 211353Z 31014G27KT 10SM OVC035 M17/M24 A3005 RMK AO2 PK WND
                 31029/1339 SLP183 T11671244 =
2019-01-21 07:53 METAR KCDW 211253Z 32017G26KT 10SM OVC038 M17/M24 A3001 RMK AO2 PK WND
                 33028/1211 SLP173 T11671244 =
2019-01-21 06:53 METAR KCDW 211153Z 30016G25KT 10SM BKN034 BKN075 M17/M24 A2998 RMK AO2 PK WND
                 31031/1135 SLP160 70008 T11671244 11122 21167 53026 =
2019-01-21 05:53 METAR KCDW 211053Z 30013G24KT 270V330 10SM SCT040 M16/M23 A2995 RMK AO2 PK WND
                 31029/1014 SLP151 T11611233 =
2019-01-21 04:53 METAR KCDW 210953Z 30012G20KT 10SM CLR M15/M22 A2992 RMK AO2 PK WND 31028/0925
                 SLP140 T11501222 =
2019-01-21 03:53 METAR KCDW 210853Z 31016G25KT 10SM SCT040 M14/M22 A2990 RMK AO2 PK WND
                 30030/0823 SLP133 T11441217 51026 =
2019-01-21 02:53 METAR KCDW 210753Z 31013G18KT 10SM OVC038 M13/M21 A2989 RMK AO2 SLP129 T11331206
                 =
2019-01-21 01:53 METAR KCDW 210653Z 32010G21KT 10SM BKN031 M13/M19 A2986 RMK AO2 PK WND
                 30028/0620 SLP120 T11331194 =
2019-01-21 00:53 METAR KCDW 210553Z 32007G19KT 10SM FEW028 SCT037 M12/M18 A2982 RMK AO2 PK WND
                 30028/0532 SLP106 T11221183 11094 21122 51030 =
2019-01-20 23:53 METAR KCDW 210453Z 31017G24KT 10SM FEW036 M11/M18 A2979 RMK AO2 PK WND
                 31027/0405 SLP095 T11111178 400391111 =
2019-01-20 22:53 METAR KCDW 210353Z 31016G24KT 10SM CLR M11/M17 A2977 RMK AO2 PK WND 31032/0333
                 SLP088 T11061172 =
2019-01-20 21:53 METAR KCDW 210253Z 32013G27KT 280V350 10SM FEW032 M11/M17 A2973 RMK AO2 PK WND
                 30028/0238 SLP076 T11061172 51025 =
2019-01-20 20:53 METAR KCDW 210153Z 32016G23KT 280V340 10SM SCT032 M10/M16 A2971 RMK AO2 PK WND
                 33029/0121 SLP067 T11001161 =
2019-01-20 19:53 METAR KCDW 210053Z 31015G24KT 10SM CLR M10/M16 A2969 RMK AO2 PK WND 33027/0022
                 SLP062 T11001161 =
2019-01-20 18:53 METAR KCDW 202353Z 32018G26KT 10SM CLR M09/M16 A2966 RMK AO2 PK WND 33030/2324
                 SLP051 60000 T10941156 10033 21094 51035 =
2019-01-20 17:53 METAR KCDW 202253Z 32015G30KT 10SM BKN030 M08/M13 A2961 RMK AO2 PK WND
                 31030/2247 UPB2158E06 SLP032 P0000 T10781133 =
2019-01-20 17:50 METAR KCDW 202250Z 31017G30KT 10SM BKN030 M08/M13 A2961 RMK AO2 PK WND
                 31030/2247 UPB2158E06 P0000 =

Support USWX by starting your Amazon purchase here.